sensor_id;sensor_type;location;lat;lon;timestamp;P1;durP1;ratioP1;P2;durP2;ratioP2
43933;SDS011;59081;42.706;23.306;2022-12-07T00:01:20;36.42;;;18.00;;
43933;SDS011;59081;42.706;23.306;2022-12-07T00:03:50;37.03;;;19.75;;
43933;SDS011;59081;42.706;23.306;2022-12-07T00:06:18;33.13;;;17.60;;
43933;SDS011;59081;42.706;23.306;2022-12-07T00:08:44;39.58;;;19.20;;
43933;SDS011;59081;42.706;23.306;2022-12-07T00:11:17;42.40;;;19.42;;
43933;SDS011;59081;42.706;23.306;2022-12-07T00:13:44;36.35;;;18.27;;
43933;SDS011;59081;42.706;23.306;2022-12-07T00:16:12;35.83;;;17.98;;
43933;SDS011;59081;42.706;23.306;2022-12-07T00:18:40;41.05;;;18.73;;
43933;SDS011;59081;42.706;23.306;2022-12-07T00:21:08;43.80;;;21.15;;
43933;SDS011;59081;42.706;23.306;2022-12-07T00:23:36;42.40;;;19.40;;
43933;SDS011;59081;42.706;23.306;2022-12-07T00:26:15;45.55;;;20.88;;
43933;SDS011;59081;42.706;23.306;2022-12-07T00:28:41;43.65;;;19.35;;
43933;SDS011;59081;42.706;23.306;2022-12-07T00:31:11;37.78;;;18.42;;
43933;SDS011;59081;42.706;23.306;2022-12-07T00:33:37;39.35;;;18.98;;
43933;SDS011;59081;42.706;23.306;2022-12-07T00:36:04;41.05;;;20.17;;
43933;SDS011;59081;42.706;23.306;2022-12-07T00:38:33;49.78;;;20.15;;
43933;SDS011;59081;42.706;23.306;2022-12-07T00:41:01;46.25;;;20.73;;
43933;SDS011;59081;42.706;23.306;2022-12-07T00:43:28;39.60;;;18.65;;
43933;SDS011;59081;42.706;23.306;2022-12-07T00:45:54;40.90;;;18.50;;
43933;SDS011;59081;42.706;23.306;2022-12-07T00:48:21;43.88;;;18.05;;
43933;SDS011;59081;42.706;23.306;2022-12-07T00:50:47;39.28;;;18.02;;
43933;SDS011;59081;42.706;23.306;2022-12-07T00:53:13;42.40;;;19.40;;
43933;SDS011;59081;42.706;23.306;2022-12-07T00:55:39;35.85;;;18.02;;
43933;SDS011;59081;42.706;23.306;2022-12-07T00:58:05;60.03;;;20.63;;
43933;SDS011;59081;42.706;23.306;2022-12-07T01:00:30;33.85;;;16.88;;
43933;SDS011;59081;42.706;23.306;2022-12-07T01:02:56;35.95;;;19.27;;
43933;SDS011;59081;42.706;23.306;2022-12-07T01:05:21;39.53;;;17.35;;
43933;SDS011;59081;42.706;23.306;2022-12-07T01:07:47;38.40;;;17.88;;
43933;SDS011;59081;42.706;23.306;2022-12-07T01:10:13;39.40;;;18.83;;
43933;SDS011;59081;42.706;23.306;2022-12-07T01:12:39;46.92;;;19.27;;
43933;SDS011;59081;42.706;23.306;2022-12-07T01:15:05;39.97;;;19.95;;
43933;SDS011;59081;42.706;23.306;2022-12-07T01:17:31;47.65;;;18.50;;
43933;SDS011;59081;42.706;23.306;2022-12-07T01:19:57;42.80;;;17.40;;
43933;SDS011;59081;42.706;23.306;2022-12-07T01:22:22;36.33;;;17.25;;
43933;SDS011;59081;42.706;23.306;2022-12-07T01:24:48;39.20;;;19.00;;
43933;SDS011;59081;42.706;23.306;2022-12-07T01:27:13;41.55;;;19.58;;
43933;SDS011;59081;42.706;23.306;2022-12-07T01:29:39;39.20;;;19.17;;
43933;SDS011;59081;42.706;23.306;2022-12-07T01:32:05;38.90;;;18.15;;
43933;SDS011;59081;42.706;23.306;2022-12-07T01:34:30;37.80;;;19.08;;
43933;SDS011;59081;42.706;23.306;2022-12-07T01:36:56;43.03;;;17.85;;
43933;SDS011;59081;42.706;23.306;2022-12-07T01:39:22;40.38;;;19.80;;
43933;SDS011;59081;42.706;23.306;2022-12-07T01:41:48;40.83;;;18.95;;
43933;SDS011;59081;42.706;23.306;2022-12-07T01:44:21;43.63;;;19.60;;
43933;SDS011;59081;42.706;23.306;2022-12-07T01:54:54;40.85;;;18.88;;
43933;SDS011;59081;42.706;23.306;2022-12-07T01:57:24;38.55;;;18.02;;
43933;SDS011;59081;42.706;23.306;2022-12-07T01:59:50;40.13;;;17.30;;
43933;SDS011;59081;42.706;23.306;2022-12-07T02:02:20;44.90;;;18.13;;
43933;SDS011;59081;42.706;23.306;2022-12-07T02:04:50;33.92;;;18.55;;
43933;SDS011;59081;42.706;23.306;2022-12-07T02:07:18;43.50;;;17.40;;
43933;SDS011;59081;42.706;23.306;2022-12-07T02:09:45;42.90;;;19.05;;
43933;SDS011;59081;42.706;23.306;2022-12-07T02:12:11;41.60;;;17.77;;
43933;SDS011;59081;42.706;23.306;2022-12-07T02:14:36;44.97;;;19.85;;
43933;SDS011;59081;42.706;23.306;2022-12-07T02:17:21;39.08;;;17.38;;
43933;SDS011;59081;42.706;23.306;2022-12-07T02:25:46;35.50;;;17.15;;
43933;SDS011;59081;42.706;23.306;2022-12-07T02:28:36;41.95;;;18.52;;
43933;SDS011;59081;42.706;23.306;2022-12-07T02:31:17;36.10;;;17.73;;
43933;SDS011;59081;42.706;23.306;2022-12-07T02:33:49;36.72;;;18.08;;
43933;SDS011;59081;42.706;23.306;2022-12-07T02:36:28;48.70;;;18.30;;
43933;SDS011;59081;42.706;23.306;2022-12-07T02:39:07;37.55;;;19.17;;
43933;SDS011;59081;42.706;23.306;2022-12-07T02:44:08;37.00;;;18.20;;
43933;SDS011;59081;42.706;23.306;2022-12-07T02:46:41;40.42;;;20.33;;
43933;SDS011;59081;42.706;23.306;2022-12-07T02:49:09;39.08;;;19.27;;
43933;SDS011;59081;42.706;23.306;2022-12-07T02:51:38;41.78;;;22.20;;
43933;SDS011;59081;42.706;23.306;2022-12-07T02:54:12;41.17;;;21.95;;
43933;SDS011;59081;42.706;23.306;2022-12-07T02:56:52;43.60;;;20.60;;
43933;SDS011;59081;42.706;23.306;2022-12-07T03:18:52;45.95;;;21.88;;
43933;SDS011;59081;42.706;23.306;2022-12-07T03:21:26;51.70;;;25.35;;
43933;SDS011;59081;42.706;23.306;2022-12-07T03:23:56;51.90;;;22.58;;
43933;SDS011;59081;42.706;23.306;2022-12-07T03:26:28;59.65;;;24.98;;
43933;SDS011;59081;42.706;23.306;2022-12-07T03:28:58;51.38;;;23.13;;
43933;SDS011;59081;42.706;23.306;2022-12-07T03:31:29;60.65;;;23.88;;
43933;SDS011;59081;42.706;23.306;2022-12-07T03:34:11;56.78;;;27.17;;
43933;SDS011;59081;42.706;23.306;2022-12-07T03:37:03;57.95;;;23.45;;
43933;SDS011;59081;42.706;23.306;2022-12-07T03:39:36;62.20;;;23.50;;
43933;SDS011;59081;42.706;23.306;2022-12-07T03:42:10;48.13;;;24.77;;
43933;SDS011;59081;42.706;23.306;2022-12-07T03:44:36;56.55;;;25.13;;
43933;SDS011;59081;42.706;23.306;2022-12-07T03:47:12;65.50;;;26.35;;
43933;SDS011;59081;42.706;23.306;2022-12-07T03:54:51;60.43;;;24.73;;
43933;SDS011;59081;42.706;23.306;2022-12-07T03:57:24;54.88;;;23.88;;
43933;SDS011;59081;42.706;23.306;2022-12-07T03:59:51;62.85;;;26.23;;
43933;SDS011;59081;42.706;23.306;2022-12-07T04:02:18;57.08;;;25.70;;
43933;SDS011;59081;42.706;23.306;2022-12-07T04:04:44;48.33;;;22.92;;
43933;SDS011;59081;42.706;23.306;2022-12-07T04:07:10;55.58;;;24.33;;
43933;SDS011;59081;42.706;23.306;2022-12-07T04:09:36;57.42;;;22.27;;
43933;SDS011;59081;42.706;23.306;2022-12-07T04:12:04;53.95;;;23.52;;
43933;SDS011;59081;42.706;23.306;2022-12-07T04:14:30;56.30;;;24.98;;
43933;SDS011;59081;42.706;23.306;2022-12-07T04:16:56;61.05;;;26.67;;
43933;SDS011;59081;42.706;23.306;2022-12-07T04:19:23;55.88;;;25.20;;
43933;SDS011;59081;42.706;23.306;2022-12-07T04:21:55;63.13;;;25.80;;
43933;SDS011;59081;42.706;23.306;2022-12-07T04:24:21;62.83;;;26.50;;
43933;SDS011;59081;42.706;23.306;2022-12-07T04:26:47;59.55;;;24.80;;
43933;SDS011;59081;42.706;23.306;2022-12-07T04:29:13;56.10;;;26.05;;
43933;SDS011;59081;42.706;23.306;2022-12-07T04:31:38;51.13;;;23.13;;
43933;SDS011;59081;42.706;23.306;2022-12-07T04:34:04;49.70;;;23.00;;
43933;SDS011;59081;42.706;23.306;2022-12-07T04:36:30;60.60;;;26.65;;
43933;SDS011;59081;42.706;23.306;2022-12-07T04:38:55;52.75;;;23.95;;
43933;SDS011;59081;42.706;23.306;2022-12-07T04:41:22;72.00;;;29.35;;
43933;SDS011;59081;42.706;23.306;2022-12-07T04:44:02;52.17;;;24.48;;
43933;SDS011;59081;42.706;23.306;2022-12-07T04:46:29;57.35;;;25.08;;
43933;SDS011;59081;42.706;23.306;2022-12-07T04:48:56;50.70;;;23.38;;
43933;SDS011;59081;42.706;23.306;2022-12-07T04:51:23;44.35;;;22.85;;
43933;SDS011;59081;42.706;23.306;2022-12-07T04:53:53;62.58;;;25.48;;
43933;SDS011;59081;42.706;23.306;2022-12-07T04:56:19;55.03;;;23.83;;
43933;SDS011;59081;42.706;23.306;2022-12-07T04:58:45;54.13;;;24.55;;
43933;SDS011;59081;42.706;23.306;2022-12-07T05:01:12;52.22;;;23.45;;
43933;SDS011;59081;42.706;23.306;2022-12-07T05:03:38;45.78;;;21.05;;
43933;SDS011;59081;42.706;23.306;2022-12-07T05:06:04;49.78;;;22.33;;
43933;SDS011;59081;42.706;23.306;2022-12-07T05:08:31;53.53;;;24.25;;
43933;SDS011;59081;42.706;23.306;2022-12-07T05:10:57;52.75;;;25.85;;
43933;SDS011;59081;42.706;23.306;2022-12-07T05:13:23;67.53;;;29.40;;
43933;SDS011;59081;42.706;23.306;2022-12-07T05:15:49;55.35;;;24.90;;
43933;SDS011;59081;42.706;23.306;2022-12-07T05:18:14;58.22;;;23.85;;
43933;SDS011;59081;42.706;23.306;2022-12-07T05:20:41;61.55;;;26.60;;
43933;SDS011;59081;42.706;23.306;2022-12-07T05:23:07;65.25;;;25.15;;
43933;SDS011;59081;42.706;23.306;2022-12-07T05:25:32;59.72;;;25.08;;
43933;SDS011;59081;42.706;23.306;2022-12-07T05:27:58;58.53;;;23.80;;
43933;SDS011;59081;42.706;23.306;2022-12-07T05:30:24;54.65;;;24.58;;
43933;SDS011;59081;42.706;23.306;2022-12-07T05:32:50;62.25;;;24.38;;
43933;SDS011;59081;42.706;23.306;2022-12-07T05:35:16;60.60;;;22.85;;
43933;SDS011;59081;42.706;23.306;2022-12-07T05:37:42;50.83;;;21.27;;
43933;SDS011;59081;42.706;23.306;2022-12-07T05:40:08;53.80;;;25.33;;
43933;SDS011;59081;42.706;23.306;2022-12-07T05:42:33;43.47;;;20.17;;
43933;SDS011;59081;42.706;23.306;2022-12-07T05:44:59;64.95;;;29.00;;
43933;SDS011;59081;42.706;23.306;2022-12-07T05:47:25;58.13;;;27.05;;
43933;SDS011;59081;42.706;23.306;2022-12-07T05:49:50;64.75;;;25.27;;
43933;SDS011;59081;42.706;23.306;2022-12-07T05:52:15;48.35;;;23.02;;
43933;SDS011;59081;42.706;23.306;2022-12-07T05:54:41;53.40;;;24.30;;
43933;SDS011;59081;42.706;23.306;2022-12-07T05:57:07;53.17;;;22.98;;
43933;SDS011;59081;42.706;23.306;2022-12-07T05:59:32;65.85;;;25.88;;
43933;SDS011;59081;42.706;23.306;2022-12-07T06:02:02;86.13;;;31.27;;
43933;SDS011;59081;42.706;23.306;2022-12-07T06:04:31;55.28;;;25.95;;
43933;SDS011;59081;42.706;23.306;2022-12-07T06:06:59;46.92;;;24.27;;
43933;SDS011;59081;42.706;23.306;2022-12-07T06:09:25;59.35;;;24.10;;
43933;SDS011;59081;42.706;23.306;2022-12-07T06:11:52;54.65;;;22.85;;
43933;SDS011;59081;42.706;23.306;2022-12-07T06:14:36;48.42;;;23.98;;
43933;SDS011;59081;42.706;23.306;2022-12-07T06:17:02;55.53;;;27.05;;
43933;SDS011;59081;42.706;23.306;2022-12-07T06:19:28;50.90;;;25.88;;
43933;SDS011;59081;42.706;23.306;2022-12-07T06:21:53;59.88;;;29.05;;
43933;SDS011;59081;42.706;23.306;2022-12-07T06:24:19;61.53;;;26.70;;
43933;SDS011;59081;42.706;23.306;2022-12-07T06:26:45;62.90;;;29.10;;
43933;SDS011;59081;42.706;23.306;2022-12-07T06:29:11;61.50;;;28.42;;
43933;SDS011;59081;42.706;23.306;2022-12-07T06:31:37;56.88;;;28.80;;
43933;SDS011;59081;42.706;23.306;2022-12-07T06:34:04;55.75;;;25.40;;
43933;SDS011;59081;42.706;23.306;2022-12-07T06:36:37;54.88;;;26.23;;
43933;SDS011;59081;42.706;23.306;2022-12-07T06:39:03;50.92;;;26.17;;
43933;SDS011;59081;42.706;23.306;2022-12-07T06:41:29;48.45;;;24.48;;
43933;SDS011;59081;42.706;23.306;2022-12-07T06:43:55;55.45;;;24.17;;
43933;SDS011;59081;42.706;23.306;2022-12-07T06:46:20;52.90;;;24.38;;
43933;SDS011;59081;42.706;23.306;2022-12-07T06:48:46;48.92;;;23.90;;
43933;SDS011;59081;42.706;23.306;2022-12-07T06:51:11;56.35;;;25.67;;
43933;SDS011;59081;42.706;23.306;2022-12-07T06:53:37;62.22;;;27.50;;
43933;SDS011;59081;42.706;23.306;2022-12-07T06:56:03;53.60;;;24.73;;
43933;SDS011;59081;42.706;23.306;2022-12-07T06:58:29;60.22;;;25.15;;
43933;SDS011;59081;42.706;23.306;2022-12-07T07:00:55;52.70;;;26.08;;
43933;SDS011;59081;42.706;23.306;2022-12-07T07:03:20;58.28;;;25.17;;
43933;SDS011;59081;42.706;23.306;2022-12-07T07:05:45;50.67;;;24.15;;
43933;SDS011;59081;42.706;23.306;2022-12-07T07:08:11;54.08;;;23.40;;
43933;SDS011;59081;42.706;23.306;2022-12-07T07:10:37;47.72;;;20.98;;
43933;SDS011;59081;42.706;23.306;2022-12-07T07:13:03;47.45;;;24.73;;
43933;SDS011;59081;42.706;23.306;2022-12-07T07:15:29;60.72;;;28.50;;
43933;SDS011;59081;42.706;23.306;2022-12-07T07:17:55;56.38;;;29.88;;
43933;SDS011;59081;42.706;23.306;2022-12-07T07:20:21;53.42;;;28.70;;
43933;SDS011;59081;42.706;23.306;2022-12-07T07:22:47;62.38;;;28.95;;
43933;SDS011;59081;42.706;23.306;2022-12-07T07:25:14;71.72;;;28.25;;
43933;SDS011;59081;42.706;23.306;2022-12-07T07:27:40;54.28;;;27.77;;
43933;SDS011;59081;42.706;23.306;2022-12-07T07:30:05;61.25;;;26.20;;
43933;SDS011;59081;42.706;23.306;2022-12-07T07:32:32;51.83;;;26.67;;
43933;SDS011;59081;42.706;23.306;2022-12-07T07:34:57;51.92;;;25.42;;
43933;SDS011;59081;42.706;23.306;2022-12-07T07:37:23;48.65;;;25.75;;
43933;SDS011;59081;42.706;23.306;2022-12-07T07:39:48;48.78;;;24.88;;
43933;SDS011;59081;42.706;23.306;2022-12-07T07:42:14;62.10;;;26.70;;
43933;SDS011;59081;42.706;23.306;2022-12-07T07:44:39;54.72;;;26.92;;
43933;SDS011;59081;42.706;23.306;2022-12-07T07:47:05;55.63;;;26.80;;
43933;SDS011;59081;42.706;23.306;2022-12-07T07:49:30;56.67;;;26.20;;
43933;SDS011;59081;42.706;23.306;2022-12-07T07:51:57;51.10;;;27.75;;
43933;SDS011;59081;42.706;23.306;2022-12-07T07:54:22;54.60;;;27.98;;
43933;SDS011;59081;42.706;23.306;2022-12-07T07:56:48;62.00;;;26.80;;
43933;SDS011;59081;42.706;23.306;2022-12-07T07:59:14;51.70;;;24.58;;
43933;SDS011;59081;42.706;23.306;2022-12-07T08:01:39;52.08;;;25.83;;
43933;SDS011;59081;42.706;23.306;2022-12-07T08:04:05;49.50;;;25.73;;
43933;SDS011;59081;42.706;23.306;2022-12-07T08:06:30;46.58;;;22.95;;
43933;SDS011;59081;42.706;23.306;2022-12-07T08:08:56;60.42;;;26.92;;
43933;SDS011;59081;42.706;23.306;2022-12-07T08:11:23;61.75;;;26.05;;
43933;SDS011;59081;42.706;23.306;2022-12-07T08:13:48;79.35;;;28.95;;
43933;SDS011;59081;42.706;23.306;2022-12-07T08:16:19;51.38;;;25.02;;
43933;SDS011;59081;42.706;23.306;2022-12-07T08:18:44;55.70;;;27.13;;
43933;SDS011;59081;42.706;23.306;2022-12-07T08:21:11;58.33;;;29.05;;
43933;SDS011;59081;42.706;23.306;2022-12-07T08:23:38;53.47;;;25.95;;
43933;SDS011;59081;42.706;23.306;2022-12-07T08:26:05;54.78;;;24.85;;
43933;SDS011;59081;42.706;23.306;2022-12-07T08:28:32;59.38;;;26.10;;
43933;SDS011;59081;42.706;23.306;2022-12-07T08:31:01;51.80;;;25.60;;
43933;SDS011;59081;42.706;23.306;2022-12-07T08:33:28;52.75;;;25.95;;
43933;SDS011;59081;42.706;23.306;2022-12-07T08:35:53;55.50;;;26.83;;
43933;SDS011;59081;42.706;23.306;2022-12-07T08:38:19;47.72;;;25.35;;
43933;SDS011;59081;42.706;23.306;2022-12-07T08:40:52;63.25;;;30.35;;
43933;SDS011;59081;42.706;23.306;2022-12-07T08:43:19;59.10;;;32.30;;
43933;SDS011;59081;42.706;23.306;2022-12-07T08:45:44;69.38;;;31.30;;
43933;SDS011;59081;42.706;23.306;2022-12-07T08:48:12;65.57;;;32.33;;
43933;SDS011;59081;42.706;23.306;2022-12-07T08:50:39;64.47;;;34.17;;
43933;SDS011;59081;42.706;23.306;2022-12-07T08:53:05;70.32;;;35.30;;
43933;SDS011;59081;42.706;23.306;2022-12-07T08:55:31;71.15;;;34.25;;
43933;SDS011;59081;42.706;23.306;2022-12-07T08:57:59;67.50;;;31.05;;
43933;SDS011;59081;42.706;23.306;2022-12-07T09:00:25;59.65;;;29.67;;
43933;SDS011;59081;42.706;23.306;2022-12-07T09:02:51;80.15;;;31.30;;
43933;SDS011;59081;42.706;23.306;2022-12-07T09:05:17;67.25;;;29.88;;
43933;SDS011;59081;42.706;23.306;2022-12-07T09:07:43;74.47;;;29.77;;
43933;SDS011;59081;42.706;23.306;2022-12-07T09:10:13;62.92;;;29.63;;
43933;SDS011;59081;42.706;23.306;2022-12-07T09:12:38;56.40;;;28.58;;
43933;SDS011;59081;42.706;23.306;2022-12-07T09:15:04;49.17;;;25.67;;
43933;SDS011;59081;42.706;23.306;2022-12-07T09:17:31;57.47;;;26.90;;
43933;SDS011;59081;42.706;23.306;2022-12-07T09:19:58;53.45;;;28.08;;
43933;SDS011;59081;42.706;23.306;2022-12-07T09:22:23;61.00;;;30.42;;
43933;SDS011;59081;42.706;23.306;2022-12-07T09:24:49;57.22;;;27.92;;
43933;SDS011;59081;42.706;23.306;2022-12-07T09:27:14;56.35;;;26.85;;
43933;SDS011;59081;42.706;23.306;2022-12-07T09:29:41;55.28;;;26.30;;
43933;SDS011;59081;42.706;23.306;2022-12-07T09:32:06;55.90;;;28.13;;
43933;SDS011;59081;42.706;23.306;2022-12-07T09:34:32;52.78;;;28.10;;
43933;SDS011;59081;42.706;23.306;2022-12-07T09:36:57;49.80;;;28.83;;
43933;SDS011;59081;42.706;23.306;2022-12-07T09:39:23;60.78;;;31.13;;
43933;SDS011;59081;42.706;23.306;2022-12-07T09:41:50;59.75;;;31.10;;
43933;SDS011;59081;42.706;23.306;2022-12-07T09:44:20;56.33;;;31.23;;
43933;SDS011;59081;42.706;23.306;2022-12-07T09:46:49;65.18;;;30.35;;
43933;SDS011;59081;42.706;23.306;2022-12-07T09:49:18;68.40;;;32.88;;
43933;SDS011;59081;42.706;23.306;2022-12-07T09:51:45;57.58;;;31.52;;
43933;SDS011;59081;42.706;23.306;2022-12-07T09:54:13;64.93;;;33.55;;
43933;SDS011;59081;42.706;23.306;2022-12-07T09:56:40;66.00;;;33.60;;
43933;SDS011;59081;42.706;23.306;2022-12-07T09:59:09;57.70;;;32.17;;
43933;SDS011;59081;42.706;23.306;2022-12-07T10:01:42;56.70;;;28.58;;
43933;SDS011;59081;42.706;23.306;2022-12-07T10:04:16;63.80;;;31.35;;
43933;SDS011;59081;42.706;23.306;2022-12-07T10:06:45;56.33;;;30.58;;
43933;SDS011;59081;42.706;23.306;2022-12-07T10:09:13;58.30;;;30.10;;
43933;SDS011;59081;42.706;23.306;2022-12-07T10:14:24;58.03;;;32.22;;
43933;SDS011;59081;42.706;23.306;2022-12-07T10:16:53;61.25;;;31.80;;
43933;SDS011;59081;42.706;23.306;2022-12-07T10:19:20;62.08;;;30.73;;
43933;SDS011;59081;42.706;23.306;2022-12-07T10:22:07;56.47;;;28.35;;
43933;SDS011;59081;42.706;23.306;2022-12-07T10:24:38;61.33;;;30.02;;
43933;SDS011;59081;42.706;23.306;2022-12-07T10:27:30;60.92;;;29.55;;
43933;SDS011;59081;42.706;23.306;2022-12-07T10:29:57;54.42;;;28.98;;
43933;SDS011;59081;42.706;23.306;2022-12-07T10:37:48;57.50;;;28.55;;
43933;SDS011;59081;42.706;23.306;2022-12-07T10:40:27;55.33;;;27.25;;
43933;SDS011;59081;42.706;23.306;2022-12-07T10:43:04;63.97;;;28.48;;
43933;SDS011;59081;42.706;23.306;2022-12-07T10:46:26;59.45;;;31.15;;
43933;SDS011;59081;42.706;23.306;2022-12-07T10:48:38;63.75;;;32.58;;
43933;SDS011;59081;42.706;23.306;2022-12-07T10:51:25;59.63;;;31.65;;
43933;SDS011;59081;42.706;23.306;2022-12-07T10:54:07;65.75;;;32.83;;
43933;SDS011;59081;42.706;23.306;2022-12-07T10:59:41;55.63;;;29.35;;
43933;SDS011;59081;42.706;23.306;2022-12-07T11:08:35;51.50;;;26.35;;
43933;SDS011;59081;42.706;23.306;2022-12-07T11:10:50;44.47;;;23.55;;
43933;SDS011;59081;42.706;23.306;2022-12-07T11:14:25;37.53;;;22.08;;
43933;SDS011;59081;42.706;23.306;2022-12-07T11:16:56;43.88;;;20.55;;
43933;SDS011;59081;42.706;23.306;2022-12-07T11:19:49;44.72;;;21.65;;
43933;SDS011;59081;42.706;23.306;2022-12-07T11:30:28;44.38;;;18.90;;
43933;SDS011;59081;42.706;23.306;2022-12-07T11:38:18;32.97;;;17.30;;
43933;SDS011;59081;42.706;23.306;2022-12-07T11:40:50;35.20;;;15.35;;
43933;SDS011;59081;42.706;23.306;2022-12-07T11:43:21;38.38;;;16.17;;
43933;SDS011;59081;42.706;23.306;2022-12-07T11:48:35;32.42;;;16.08;;
43933;SDS011;59081;42.706;23.306;2022-12-07T11:51:06;31.50;;;14.88;;
43933;SDS011;59081;42.706;23.306;2022-12-07T11:53:40;30.92;;;15.10;;
43933;SDS011;59081;42.706;23.306;2022-12-07T11:56:13;27.33;;;15.57;;
43933;SDS011;59081;42.706;23.306;2022-12-07T11:58:51;25.75;;;14.70;;
43933;SDS011;59081;42.706;23.306;2022-12-07T12:03:48;34.58;;;15.40;;
43933;SDS011;59081;42.706;23.306;2022-12-07T12:06:16;28.25;;;15.68;;
43933;SDS011;59081;42.706;23.306;2022-12-07T12:11:35;26.52;;;14.13;;
43933;SDS011;59081;42.706;23.306;2022-12-07T12:14:23;26.55;;;14.68;;
43933;SDS011;59081;42.706;23.306;2022-12-07T12:25:26;32.90;;;15.30;;
43933;SDS011;59081;42.706;23.306;2022-12-07T12:27:55;26.23;;;15.80;;
43933;SDS011;59081;42.706;23.306;2022-12-07T12:33:04;29.17;;;15.07;;
43933;SDS011;59081;42.706;23.306;2022-12-07T12:35:38;21.30;;;12.15;;
43933;SDS011;59081;42.706;23.306;2022-12-07T12:40:55;24.48;;;12.18;;
43933;SDS011;59081;42.706;23.306;2022-12-07T12:43:43;21.75;;;11.02;;
43933;SDS011;59081;42.706;23.306;2022-12-07T12:48:57;23.10;;;11.30;;
43933;SDS011;59081;42.706;23.306;2022-12-07T12:51:42;18.10;;;11.32;;
43933;SDS011;59081;42.706;23.306;2022-12-07T12:59:33;25.20;;;12.95;;
43933;SDS011;59081;42.706;23.306;2022-12-07T13:13:03;20.60;;;11.60;;
43933;SDS011;59081;42.706;23.306;2022-12-07T13:15:42;30.40;;;13.00;;
43933;SDS011;59081;42.706;23.306;2022-12-07T13:23:31;28.98;;;13.35;;
43933;SDS011;59081;42.706;23.306;2022-12-07T13:29:10;20.10;;;12.88;;
43933;SDS011;59081;42.706;23.306;2022-12-07T13:37:00;22.52;;;13.88;;
43933;SDS011;59081;42.706;23.306;2022-12-07T13:39:29;26.48;;;12.77;;
43933;SDS011;59081;42.706;23.306;2022-12-07T13:41:58;25.80;;;12.90;;
43933;SDS011;59081;42.706;23.306;2022-12-07T13:44:25;22.48;;;12.52;;
43933;SDS011;59081;42.706;23.306;2022-12-07T13:49:38;24.25;;;11.82;;
43933;SDS011;59081;42.706;23.306;2022-12-07T13:52:18;22.70;;;12.77;;
43933;SDS011;59081;42.706;23.306;2022-12-07T13:57:14;24.52;;;12.63;;
43933;SDS011;59081;42.706;23.306;2022-12-07T13:59:40;23.85;;;12.38;;
43933;SDS011;59081;42.706;23.306;2022-12-07T14:02:17;30.88;;;13.43;;
43933;SDS011;59081;42.706;23.306;2022-12-07T14:04:50;26.27;;;13.55;;
43933;SDS011;59081;42.706;23.306;2022-12-07T14:07:24;22.50;;;13.02;;
43933;SDS011;59081;42.706;23.306;2022-12-07T14:09:54;25.05;;;13.70;;
43933;SDS011;59081;42.706;23.306;2022-12-07T14:12:20;23.08;;;13.20;;
43933;SDS011;59081;42.706;23.306;2022-12-07T14:14:47;31.50;;;14.60;;
43933;SDS011;59081;42.706;23.306;2022-12-07T14:17:15;23.17;;;15.20;;
43933;SDS011;59081;42.706;23.306;2022-12-07T14:19:50;27.15;;;14.35;;
43933;SDS011;59081;42.706;23.306;2022-12-07T14:22:28;26.95;;;13.35;;
43933;SDS011;59081;42.706;23.306;2022-12-07T14:25:00;26.00;;;12.68;;
43933;SDS011;59081;42.706;23.306;2022-12-07T14:27:36;24.80;;;13.82;;
43933;SDS011;59081;42.706;23.306;2022-12-07T14:30:03;29.55;;;14.85;;
43933;SDS011;59081;42.706;23.306;2022-12-07T14:32:29;25.80;;;14.15;;
43933;SDS011;59081;42.706;23.306;2022-12-07T14:34:59;25.98;;;13.00;;
43933;SDS011;59081;42.706;23.306;2022-12-07T14:37:25;27.25;;;13.63;;
43933;SDS011;59081;42.706;23.306;2022-12-07T14:39:52;31.17;;;15.07;;
43933;SDS011;59081;42.706;23.306;2022-12-07T14:42:17;34.05;;;15.65;;
43933;SDS011;59081;42.706;23.306;2022-12-07T14:44:43;33.30;;;16.35;;
43933;SDS011;59081;42.706;23.306;2022-12-07T14:47:11;26.55;;;14.18;;
43933;SDS011;59081;42.706;23.306;2022-12-07T14:49:37;29.13;;;14.75;;
43933;SDS011;59081;42.706;23.306;2022-12-07T14:52:03;31.77;;;16.73;;
43933;SDS011;59081;42.706;23.306;2022-12-07T14:54:30;26.50;;;15.38;;
43933;SDS011;59081;42.706;23.306;2022-12-07T14:56:57;39.53;;;17.15;;
43933;SDS011;59081;42.706;23.306;2022-12-07T14:59:23;38.70;;;16.98;;
43933;SDS011;59081;42.706;23.306;2022-12-07T15:01:49;38.13;;;16.48;;
43933;SDS011;59081;42.706;23.306;2022-12-07T15:04:14;39.28;;;18.35;;
43933;SDS011;59081;42.706;23.306;2022-12-07T15:06:40;37.83;;;16.65;;
43933;SDS011;59081;42.706;23.306;2022-12-07T15:09:11;39.03;;;18.67;;
43933;SDS011;59081;42.706;23.306;2022-12-07T15:11:37;37.85;;;19.67;;
43933;SDS011;59081;42.706;23.306;2022-12-07T15:14:02;37.45;;;17.98;;
43933;SDS011;59081;42.706;23.306;2022-12-07T15:16:41;36.35;;;18.02;;
43933;SDS011;59081;42.706;23.306;2022-12-07T15:19:14;48.13;;;19.45;;
43933;SDS011;59081;42.706;23.306;2022-12-07T15:21:42;37.92;;;19.15;;
43933;SDS011;59081;42.706;23.306;2022-12-07T15:24:08;30.73;;;19.08;;
43933;SDS011;59081;42.706;23.306;2022-12-07T15:26:38;36.25;;;17.13;;
43933;SDS011;59081;42.706;23.306;2022-12-07T15:29:05;53.53;;;22.92;;
43933;SDS011;59081;42.706;23.306;2022-12-07T15:31:31;47.13;;;25.00;;
43933;SDS011;59081;42.706;23.306;2022-12-07T15:33:57;61.13;;;25.70;;
43933;SDS011;59081;42.706;23.306;2022-12-07T15:36:24;53.80;;;25.70;;
43933;SDS011;59081;42.706;23.306;2022-12-07T15:38:52;52.40;;;24.70;;
43933;SDS011;59081;42.706;23.306;2022-12-07T15:41:17;57.63;;;26.20;;
43933;SDS011;59081;42.706;23.306;2022-12-07T15:43:43;37.38;;;22.58;;
43933;SDS011;59081;42.706;23.306;2022-12-07T15:46:31;39.03;;;21.58;;
43933;SDS011;59081;42.706;23.306;2022-12-07T15:48:58;49.33;;;23.95;;
43933;SDS011;59081;42.706;23.306;2022-12-07T15:51:23;47.25;;;24.45;;
43933;SDS011;59081;42.706;23.306;2022-12-07T15:53:49;52.85;;;24.80;;
43933;SDS011;59081;42.706;23.306;2022-12-07T15:56:14;53.58;;;27.58;;
43933;SDS011;59081;42.706;23.306;2022-12-07T15:58:40;59.97;;;27.63;;
43933;SDS011;59081;42.706;23.306;2022-12-07T16:01:18;60.63;;;27.25;;
43933;SDS011;59081;42.706;23.306;2022-12-07T16:03:45;58.03;;;27.48;;
43933;SDS011;59081;42.706;23.306;2022-12-07T16:06:11;75.72;;;35.15;;
43933;SDS011;59081;42.706;23.306;2022-12-07T16:08:36;70.50;;;31.13;;
43933;SDS011;59081;42.706;23.306;2022-12-07T16:11:05;69.53;;;32.33;;
43933;SDS011;59081;42.706;23.306;2022-12-07T16:13:31;75.93;;;32.22;;
43933;SDS011;59081;42.706;23.306;2022-12-07T16:15:57;75.45;;;32.28;;
43933;SDS011;59081;42.706;23.306;2022-12-07T16:18:23;70.57;;;31.48;;
43933;SDS011;59081;42.706;23.306;2022-12-07T16:20:48;80.93;;;33.92;;
43933;SDS011;59081;42.706;23.306;2022-12-07T16:23:14;73.85;;;36.70;;
43933;SDS011;59081;42.706;23.306;2022-12-07T16:25:40;74.63;;;36.58;;
43933;SDS011;59081;42.706;23.306;2022-12-07T16:28:05;87.80;;;34.15;;
43933;SDS011;59081;42.706;23.306;2022-12-07T16:30:31;100.15;;;39.08;;